createdAt,value
2018-09-08T00:00:23.833Z,16.11
2018-09-08T00:01:23.865Z,16.11
2018-09-08T00:02:23.878Z,16.07
2018-09-08T00:03:38.564Z,15.97
2018-09-08T00:04:38.585Z,16.01
2018-09-08T00:05:23.691Z,16
2018-09-08T00:06:23.967Z,15.93
2018-09-08T00:07:23.994Z,15.92
2018-09-08T00:09:24.032Z,15.82
2018-09-08T00:10:38.723Z,15.82
2018-09-08T00:11:24.086Z,15.89
2018-09-08T00:12:24.110Z,15.83
2018-09-08T00:13:24.125Z,15.83
2018-09-08T00:14:24.152Z,15.83
2018-09-08T00:15:24.173Z,15.86
2018-09-08T00:17:23.960Z,15.84
2018-09-08T00:18:23.983Z,15.75
2018-09-08T00:19:24.269Z,15.67
2018-09-08T00:20:24.285Z,15.72
2018-09-08T00:21:24.308Z,15.72
2018-09-08T00:22:38.990Z,15.75
2018-09-08T00:23:24.353Z,15.68
2018-09-08T00:24:24.373Z,15.65
2018-09-08T00:25:24.396Z,15.74
2018-09-08T00:26:24.421Z,15.69
2018-09-08T00:27:24.449Z,15.65
2018-09-08T00:28:24.463Z,15.57
2018-09-08T00:29:24.233Z,15.54
2018-09-08T00:30:24.510Z,15.59
2018-09-08T00:31:24.537Z,15.54
2018-09-08T00:32:24.557Z,15.54
2018-09-08T00:33:24.065Z,15.56
2018-09-08T00:34:24.598Z,15.53
2018-09-08T00:35:24.623Z,15.59
2018-09-08T00:36:24.648Z,15.49
2018-09-08T00:37:24.673Z,15.54
2018-09-08T00:38:24.866Z,15.5
2018-09-08T00:39:24.710Z,15.56
2018-09-08T00:40:24.478Z,15.5
2018-09-08T00:41:24.759Z,15.54
2018-09-08T00:42:39.442Z,15.41
2018-09-08T00:43:24.810Z,15.47
2018-09-08T00:44:24.826Z,15.44
2018-09-08T00:45:24.849Z,15.43
2018-09-08T00:46:24.870Z,15.49
2018-09-08T00:47:24.896Z,15.41
2018-09-08T00:48:24.929Z,15.35
2018-09-08T00:49:39.601Z,15.32
2018-09-08T00:50:24.962Z,15.32
2018-09-08T00:51:24.985Z,15.35
2018-09-08T00:52:25.014Z,15.28
2018-09-08T00:53:25.025Z,15.28
2018-09-08T00:54:25.052Z,15.2
2018-09-08T00:55:24.817Z,15.16
2018-09-08T00:56:25.092Z,15.29
2018-09-08T00:57:25.116Z,15.29
2018-09-08T00:58:39.799Z,15.29
2018-09-08T01:00:24.928Z,15.23
2018-09-08T01:01:25.213Z,15.16
2018-09-08T01:03:24.996Z,15.16
2018-09-08T01:04:25.272Z,15.11
2018-09-08T01:05:25.295Z,15.06
2018-09-08T01:06:25.312Z,15.11
2018-09-08T01:07:25.080Z,15.06
2018-09-08T01:08:25.362Z,14.99
2018-09-08T01:09:25.383Z,14.94
2018-09-08T01:11:25.171Z,14.98
2018-09-08T01:12:25.189Z,14.91
2018-09-08T01:13:25.527Z,14.89
2018-09-08T01:14:40.153Z,14.94
2018-09-08T01:15:25.517Z,14.84
2018-09-08T01:16:25.547Z,14.77
2018-09-08T01:18:25.583Z,14.65
2018-09-08T01:19:25.602Z,14.7
2018-09-08T01:20:25.629Z,14.6
2018-09-08T01:21:25.393Z,14.75
2018-09-08T01:22:40.333Z,14.77
2018-09-08T01:23:25.444Z,14.72
2018-09-08T01:24:40.377Z,14.72
2018-09-08T01:25:25.741Z,14.78
2018-09-08T01:26:25.763Z,14.73
2018-09-08T01:27:25.779Z,14.83
2018-09-08T01:28:25.806Z,14.88
2018-09-08T01:30:40.253Z,14.94
2018-09-08T01:31:25.870Z,14.83
2018-09-08T01:33:40.582Z,14.78
2018-09-08T01:35:25.962Z,14.75
2018-09-08T01:36:25.986Z,14.72
2018-09-08T01:37:26.012Z,14.73
2018-09-08T01:38:25.769Z,14.62
2018-09-08T01:39:26.048Z,14.62
2018-09-08T01:40:40.732Z,14.7
2018-09-08T01:41:25.834Z,14.65
2018-09-08T01:42:26.121Z,14.62
2018-09-08T01:43:25.880Z,14.57
2018-09-08T01:44:26.160Z,14.65
2018-09-08T01:45:40.846Z,14.58
2018-09-08T01:46:26.204Z,14.51
2018-09-08T01:47:25.970Z,14.6
2018-09-08T01:48:26.252Z,14.6
2018-09-08T01:49:40.936Z,14.78
2018-09-08T01:50:26.299Z,14.81
2018-09-08T01:51:26.317Z,14.84
2018-09-08T01:52:26.337Z,14.81
2018-09-08T01:53:41.022Z,14.88
2018-09-08T01:54:41.042Z,14.92
2018-09-08T01:55:41.067Z,15.03
2018-09-08T01:56:26.426Z,14.98
2018-09-08T01:57:26.449Z,14.96
2018-09-08T01:58:26.476Z,14.99
2018-09-08T01:59:25.977Z,14.99
2018-09-08T02:00:26.515Z,14.91
2018-09-08T02:01:26.537Z,14.91
2018-09-08T02:02:26.302Z,14.89
2018-09-08T02:03:26.580Z,14.86
2018-09-08T02:04:26.609Z,14.8
2018-09-08T02:05:26.629Z,14.75
2018-09-08T02:06:26.648Z,14.77
2018-09-08T02:07:26.717Z,14.68
2018-09-08T02:08:26.693Z,14.62
2018-09-08T02:09:26.453Z,14.65
2018-09-08T02:10:26.741Z,14.55
2018-09-08T02:11:26.758Z,14.55
2018-09-08T02:12:26.781Z,14.58
2018-09-08T02:13:26.800Z,14.57
2018-09-08T02:14:26.830Z,14.64
2018-09-08T02:17:41.550Z,14.6
2018-09-08T02:18:26.910Z,14.65
2018-09-08T02:19:26.931Z,14.64
2018-09-08T02:20:26.952Z,14.68
2018-09-08T02:21:26.717Z,14.73
2018-09-08T02:22:27.002Z,14.78
2018-09-08T02:23:26.767Z,14.86
2018-09-08T02:24:26.785Z,14.94
2018-09-08T02:25:27.410Z,14.98
2018-09-08T02:26:27.192Z,15.07
2018-09-08T02:27:27.112Z,15.07
2018-09-08T02:28:27.134Z,15.1
2018-09-08T02:29:27.166Z,15.03
2018-09-08T02:30:26.928Z,15.06
2018-09-08T02:31:27.199Z,15.01
2018-09-08T02:32:27.232Z,15.01
2018-09-08T02:33:41.905Z,14.95
2018-09-08T02:34:27.274Z,15.02
2018-09-08T02:35:27.040Z,14.95
2018-09-08T02:37:27.331Z,14.94
2018-09-08T02:38:27.358Z,14.91
2018-09-08T02:39:27.372Z,14.96
2018-09-08T02:40:42.060Z,14.86
2018-09-08T02:41:27.178Z,14.75
2018-09-08T02:42:27.181Z,14.81
2018-09-08T02:43:27.209Z,14.7
2018-09-08T02:44:27.485Z,14.65
2018-09-08T02:45:27.510Z,14.57
2018-09-08T02:46:27.269Z,14.55
2018-09-08T02:47:27.554Z,14.51
2018-09-08T02:48:27.573Z,14.51
2018-09-08T02:50:27.629Z,14.5
2018-09-08T02:51:27.429Z,14.47
2018-09-08T02:52:27.663Z,14.43
2018-09-08T02:53:27.683Z,14.35
2018-09-08T02:54:27.481Z,14.35
2018-09-08T02:55:27.725Z,14.4
2018-09-08T02:56:27.747Z,14.39
2018-09-08T02:58:27.636Z,14.4
2018-09-08T02:59:27.559Z,14.39
2018-09-08T03:00:27.850Z,14.35
2018-09-08T03:01:27.863Z,14.33
2018-09-08T03:02:27.883Z,14.37
2018-09-08T03:03:27.906Z,14.45
2018-09-08T03:04:27.666Z,14.37
2018-09-08T03:05:42.607Z,14.4
2018-09-08T03:06:27.711Z,14.46
2018-09-08T03:07:27.993Z,14.47
2018-09-08T03:08:27.754Z,14.46
2018-09-08T03:09:27.777Z,14.46
2018-09-08T03:10:28.057Z,14.4
2018-09-08T03:11:42.745Z,14.43
2018-09-08T03:12:28.106Z,14.33
2018-09-08T03:13:27.870Z,14.22
2018-09-08T03:14:42.805Z,14.28
2018-09-08T03:15:28.170Z,14.33
2018-09-08T03:16:28.185Z,14.28
2018-09-08T03:17:28.209Z,14.28
2018-09-08T03:18:28.251Z,14.18
2018-09-08T03:19:28.253Z,14.2
2018-09-08T03:20:42.937Z,14.04
2018-09-08T03:21:28.298Z,14.09
2018-09-08T03:23:28.340Z,14.09
2018-09-08T03:24:28.371Z,14.02
2018-09-08T03:26:28.405Z,13.96
2018-09-08T03:27:28.434Z,13.91
2018-09-08T03:28:28.193Z,13.84
2018-09-08T03:29:28.491Z,13.85
2018-09-08T03:30:28.499Z,13.75
2018-09-08T03:32:28.538Z,13.67
2018-09-08T03:33:28.302Z,13.67
2018-09-08T03:34:28.324Z,13.63
2018-09-08T03:35:28.609Z,13.6
2018-09-08T03:36:28.368Z,13.63
2018-09-08T03:37:28.389Z,13.67
2018-09-08T03:39:28.691Z,13.6
2018-09-08T03:40:28.195Z,13.59
2018-09-08T03:41:28.733Z,13.55
2018-09-08T03:42:28.530Z,13.57
2018-09-08T03:43:28.778Z,13.51
2018-09-08T03:44:28.545Z,13.48
2018-09-08T03:45:43.483Z,13.54
2018-09-08T03:46:28.849Z,13.33
2018-09-08T03:47:28.863Z,13.33
2018-09-08T03:48:28.882Z,13.33
2018-09-08T03:49:28.391Z,13.29
2018-09-08T03:50:28.932Z,13.3
2018-09-08T03:51:28.691Z,13.2
2018-09-08T03:52:43.633Z,13.14
2018-09-08T03:53:28.998Z,13.15
2018-09-08T03:54:28.756Z,13.25
2018-09-08T03:56:29.057Z,13.11
2018-09-08T03:57:29.082Z,13.01
2018-09-08T03:58:29.102Z,13.01
2018-09-08T03:59:28.862Z,13
2018-09-08T04:00:29.144Z,12.92
2018-09-08T04:01:29.166Z,12.82
2018-09-08T04:02:43.847Z,12.87
2018-09-08T04:03:29.208Z,12.82
2018-09-08T04:04:28.974Z,12.77
2018-09-08T04:05:29.344Z,12.78
2018-09-08T04:06:29.016Z,12.77
2018-09-08T04:07:29.036Z,12.79
2018-09-08T04:08:43.720Z,12.78
2018-09-08T04:09:28.822Z,12.68
2018-09-08T04:10:29.099Z,12.64
2018-09-08T04:11:29.130Z,12.65
2018-09-08T04:14:29.435Z,12.5
2018-09-08T04:15:29.207Z,12.57
2018-09-08T04:16:29.493Z,12.54
2018-09-08T04:17:28.993Z,12.47
2018-09-08T04:18:29.275Z,12.7
2018-09-08T04:19:29.299Z,12.5
2018-09-08T04:20:29.574Z,12.65
2018-09-08T04:21:29.336Z,12.54
2018-09-08T04:23:29.643Z,12.45
2018-09-08T04:24:44.319Z,12.49
2018-09-08T04:25:29.682Z,12.39
2018-09-08T04:26:29.698Z,12.34
2018-09-08T04:28:29.748Z,12.32
2018-09-08T04:29:29.561Z,12.37
2018-09-08T04:30:44.449Z,12.37
2018-09-08T04:31:44.469Z,12.39
2018-09-08T04:32:29.828Z,12.35
2018-09-08T04:33:29.596Z,12.29
2018-09-08T04:34:29.871Z,12.35
2018-09-08T04:35:44.293Z,12.27
2018-09-08T04:36:29.913Z,12.29
2018-09-08T04:37:29.936Z,12.34
2018-09-08T04:38:29.697Z,12.41
2018-09-08T04:39:29.719Z,12.32
2018-09-08T04:40:44.757Z,12.23
2018-09-08T04:41:30.018Z,12.2
2018-09-08T04:42:29.781Z,12.34
2018-09-08T04:43:30.066Z,12.31
2018-09-08T04:44:30.089Z,12.37
2018-09-08T04:45:29.842Z,12.37
2018-09-08T04:46:30.127Z,12.37
2018-09-08T04:47:30.147Z,12.37
2018-09-08T04:48:29.908Z,12.39
2018-09-08T04:49:29.935Z,12.32
2018-09-08T04:50:30.206Z,12.34
2018-09-08T04:52:29.737Z,12.34
2018-09-08T04:53:30.270Z,12.23
2018-09-08T04:54:30.038Z,12.34
2018-09-08T04:55:44.973Z,12.41
2018-09-08T04:56:30.335Z,12.37
2018-09-08T04:57:30.098Z,12.37
2018-09-08T04:58:30.377Z,12.29
2018-09-08T04:59:30.405Z,12.29
2018-09-08T05:00:30.419Z,12.31
2018-09-08T05:01:30.451Z,12.37
2018-09-08T05:02:29.998Z,12.37
2018-09-08T05:03:30.483Z,12.41
2018-09-08T05:04:29.990Z,12.42
2018-09-08T05:05:30.267Z,12.54
2018-09-08T05:06:30.549Z,12.46
2018-09-08T05:07:30.567Z,12.52
2018-09-08T05:08:30.592Z,12.54
2018-09-08T05:09:30.354Z,12.42
2018-09-08T05:11:30.395Z,12.46
2018-09-08T05:12:45.342Z,12.46
2018-09-08T05:13:30.692Z,12.59
2018-09-08T05:15:30.740Z,12.64
2018-09-08T05:16:30.757Z,12.67
2018-09-08T05:17:30.526Z,12.65
2018-09-08T05:19:30.820Z,12.78
2018-09-08T05:20:45.504Z,12.85
2018-09-08T05:21:30.608Z,12.87
2018-09-08T05:22:30.887Z,12.9
2018-09-08T05:23:30.906Z,12.93
2018-09-08T05:24:30.931Z,13.08
2018-09-08T05:26:30.709Z,13.33
2018-09-08T05:27:45.649Z,13.32
2018-09-08T05:28:30.834Z,13.49
2018-09-08T05:29:30.520Z,13.57
2018-09-08T05:30:30.799Z,13.57
2018-09-08T05:32:30.840Z,13.63
2018-09-08T05:33:31.128Z,13.64
2018-09-08T05:34:31.145Z,13.89
2018-09-08T05:35:30.913Z,13.89
2018-09-08T05:36:31.189Z,13.91
2018-09-08T05:37:31.206Z,13.92
2018-09-08T05:38:31.233Z,14.02
2018-09-08T05:39:31.261Z,14.04
2018-09-08T05:40:31.272Z,14
2018-09-08T05:41:31.294Z,14.21
2018-09-08T05:42:31.367Z,14.2
2018-09-08T05:43:45.743Z,14.22
2018-09-08T05:45:30.865Z,14.33
2018-09-08T05:46:31.408Z,14.46
2018-09-08T05:47:31.429Z,14.37
2018-09-08T05:48:30.931Z,14.37
2018-09-08T05:49:31.214Z,14.51
2018-09-08T05:50:31.492Z,14.51
2018-09-08T05:51:31.260Z,14.78
2018-09-08T05:52:31.544Z,15.25
2018-09-08T05:53:31.563Z,15.59
2018-09-08T05:54:31.584Z,16.11
2018-09-08T05:55:31.607Z,16.39
2018-09-08T05:56:31.643Z,16.85
2018-09-08T05:57:31.656Z,17.06
2018-09-08T05:58:32.100Z,17.21
2018-09-08T05:59:46.103Z,17.51
2018-09-08T06:00:31.466Z,17.71
2018-09-08T06:02:31.774Z,18.12
2018-09-08T06:04:31.823Z,18.58
2018-09-08T06:05:31.851Z,18.9
2018-09-08T06:06:31.875Z,19.21
2018-09-08T06:07:31.901Z,19.5
2018-09-08T06:08:31.412Z,19.58
2018-09-08T06:09:31.696Z,19.88
2018-09-08T06:11:32.005Z,20.16
2018-09-08T06:12:32.036Z,20.41
2018-09-08T06:13:32.063Z,20.48
2018-09-08T06:14:32.095Z,20.35
2018-09-08T06:15:46.784Z,20.79
2018-09-08T06:16:32.146Z,20.98
2018-09-08T06:18:32.209Z,21.27
2018-09-08T06:19:32.317Z,21.38
2018-09-08T06:20:32.259Z,21.43
2018-09-08T06:21:32.288Z,21.53
2018-09-08T06:22:32.319Z,21.64
2018-09-08T06:23:32.352Z,21.71
2018-09-08T06:24:32.725Z,21.77
2018-09-08T06:25:47.086Z,21.8
2018-09-08T06:26:32.441Z,21.96
2018-09-08T06:27:32.466Z,22.14
2018-09-08T06:28:32.788Z,21.99
2018-09-08T06:29:32.530Z,22.31
2018-09-08T06:30:46.964Z,22.4
2018-09-08T06:31:32.340Z,22.28
2018-09-08T06:32:32.621Z,22.45
2018-09-08T06:33:32.216Z,22.67
2018-09-08T06:34:32.685Z,22.72
2018-09-08T06:35:47.399Z,23.02
2018-09-08T06:36:32.746Z,23.07
2018-09-08T06:37:32.779Z,22.77
2018-09-08T06:38:32.562Z,22.8
2018-09-08T06:39:47.514Z,22.98
2018-09-08T06:40:32.870Z,23.07
2018-09-08T06:41:32.392Z,23.25
2018-09-08T06:42:32.944Z,23.32
2018-09-08T06:43:32.973Z,23.23
2018-09-08T06:44:32.746Z,23.69
2018-09-08T06:45:32.776Z,23.87
2018-09-08T06:46:33.067Z,23.73
2018-09-08T06:48:33.135Z,23.84
2018-09-08T06:49:33.167Z,24.02
2018-09-08T06:50:33.197Z,24.2
2018-09-08T06:52:33.007Z,24.05
2018-09-08T06:53:33.297Z,24.12
2018-09-08T06:54:33.343Z,24.2
2018-09-08T06:55:33.362Z,24.02
2018-09-08T06:56:47.803Z,23.73
2018-09-08T06:57:33.170Z,24
2018-09-08T06:59:33.241Z,24.16
2018-09-08T07:00:33.530Z,24.24
2018-09-08T07:01:33.310Z,24.42
2018-09-08T07:03:33.925Z,24.24
2018-09-08T07:05:33.696Z,24.67
2018-09-08T07:06:33.739Z,24.64
2018-09-08T07:07:33.250Z,24.68
2018-09-08T07:08:33.799Z,24.77
2018-09-08T07:09:33.847Z,24.69
2018-09-08T07:10:48.529Z,24.77
2018-09-08T07:11:48.564Z,25.18
2018-09-08T07:12:48.596Z,25.2
2018-09-08T07:13:33.966Z,25.09
2018-09-08T07:14:34.004Z,25.03
2018-09-08T07:15:34.037Z,25.08
2018-09-08T07:16:33.813Z,25
2018-09-08T07:17:33.849Z,25.23
2018-09-08T07:18:48.803Z,25.25
2018-09-08T07:19:34.175Z,25.15
2018-09-08T07:20:33.951Z,25.02
2018-09-08T07:21:33.984Z,24.62
2018-09-08T07:22:34.273Z,24.6
2018-09-08T07:24:34.350Z,24.65
2018-09-08T07:25:34.376Z,24.55
2018-09-08T07:26:34.161Z,24.67
2018-09-08T07:27:34.445Z,24.95
2018-09-08T07:28:34.479Z,25.2
2018-09-08T07:29:49.176Z,25.21
2018-09-08T07:30:34.550Z,25.15
2018-09-08T07:31:34.327Z,24.99
2018-09-08T07:32:34.357Z,24.71
2018-09-08T07:33:34.657Z,24.6
2018-09-08T07:34:49.346Z,24.81
2018-09-08T07:35:34.717Z,24.78
2018-09-08T07:36:34.759Z,24.91
2018-09-08T07:37:34.845Z,25.18
2018-09-08T07:38:34.823Z,25.36
2018-09-08T07:39:34.859Z,25.47
2018-09-08T07:40:34.907Z,25.61
2018-09-08T07:41:34.924Z,25.28
2018-09-08T07:42:34.957Z,25.23
2018-09-08T07:43:34.475Z,25.06
2018-09-08T07:44:35.032Z,25.13
2018-09-08T07:45:49.468Z,25.39
2018-09-08T07:46:34.842Z,25.38
2018-09-08T07:47:35.128Z,25.38
2018-09-08T07:48:34.906Z,25.36
2018-09-08T07:49:35.198Z,25.47
2018-09-08T07:50:49.638Z,25.65
2018-09-08T07:51:35.010Z,25.85
2018-09-08T07:52:35.299Z,25.92
2018-09-08T07:53:35.373Z,25.88
2018-09-08T07:54:35.110Z,26.21
2018-09-08T07:55:35.141Z,26.29
2018-09-08T07:56:35.175Z,26.33
2018-09-08T07:57:35.465Z,25.64
2018-09-08T07:58:35.516Z,25.42
2018-09-08T07:59:35.278Z,25.25
2018-09-08T08:00:35.574Z,25.06
2018-09-08T08:01:35.343Z,25.08
2018-09-08T08:02:35.633Z,25.21
2018-09-08T08:03:35.410Z,25.47
2018-09-08T08:05:50.398Z,25.83
2018-09-08T08:06:35.832Z,25.69
2018-09-08T08:08:35.843Z,25.95
2018-09-08T08:09:35.869Z,25.8
2018-09-08T08:10:35.911Z,25.33
2018-09-08T08:11:35.935Z,25.42
2018-09-08T08:12:35.970Z,25.64
2018-09-08T08:13:35.745Z,26.02
2018-09-08T08:14:35.951Z,25.83
2018-09-08T08:15:36.074Z,25.7
2018-09-08T08:16:36.105Z,25.85
2018-09-08T08:17:35.882Z,25.95
2018-09-08T08:18:36.173Z,25.92
2018-09-08T08:19:36.206Z,25.92
2018-09-08T08:20:50.908Z,25.58
2018-09-08T08:21:36.024Z,25.69
2018-09-08T08:22:50.975Z,25.7
2018-09-08T08:23:36.079Z,26.07
2018-09-08T08:24:36.108Z,26.21
2018-09-08T08:25:36.397Z,25.62
2018-09-08T08:26:36.434Z,25.51
2018-09-08T08:27:36.469Z,25.83
2018-09-08T08:28:51.161Z,25.88
2018-09-08T08:29:36.581Z,25.82
2018-09-08T08:30:36.610Z,26.05
2018-09-08T08:31:36.600Z,25.95
2018-09-08T08:32:36.630Z,26.02
2018-09-08T08:33:36.664Z,25.82
2018-09-08T08:34:36.691Z,25.94
2018-09-08T08:35:36.474Z,26.21
2018-09-08T08:36:36.755Z,26.2
2018-09-08T08:37:51.463Z,26.01
2018-09-08T08:39:36.602Z,25.83
2018-09-08T08:40:36.370Z,25.6
2018-09-08T08:41:36.406Z,25.65
2018-09-08T08:42:36.693Z,25.62
2018-09-08T08:43:36.984Z,25.64
2018-09-08T08:44:37.016Z,26.02
2018-09-08T08:45:37.045Z,26.3
2018-09-08T08:46:37.086Z,26.43
2018-09-08T08:47:37.111Z,26.73
2018-09-08T08:48:37.149Z,26.62
2018-09-08T08:49:36.956Z,26.58
2018-09-08T08:50:37.208Z,26.57
2018-09-08T08:51:37.240Z,26.92
2018-09-08T08:52:37.480Z,26.4
2018-09-08T08:53:51.968Z,26.43
2018-09-08T08:54:37.336Z,26.43
2018-09-08T08:55:37.404Z,26.47
2018-09-08T08:56:37.399Z,26.18
2018-09-08T08:57:37.439Z,26.48
2018-09-08T08:58:37.465Z,26.69
2018-09-08T08:59:37.504Z,26.91
2018-09-08T09:00:37.530Z,27.02
2018-09-08T09:01:37.560Z,27.07
2018-09-08T09:02:37.336Z,26.77
2018-09-08T09:03:37.622Z,26.54
2018-09-08T09:04:52.319Z,26.45
2018-09-08T09:05:37.689Z,26.45
2018-09-08T09:06:37.717Z,26.39
2018-09-08T09:07:38.044Z,26.55
2018-09-08T09:08:39.425Z,26.55
2018-09-08T09:09:52.481Z,26.62
2018-09-08T09:10:37.847Z,26.77
2018-09-08T09:11:37.641Z,26.5
2018-09-08T09:12:39.008Z,26.28
2018-09-08T09:13:38.402Z,26.33
2018-09-08T09:14:39.324Z,26.23
2018-09-08T09:15:53.266Z,26.43
2018-09-08T09:16:38.042Z,26.37
2018-09-08T09:17:38.079Z,26.21
2018-09-08T09:18:39.967Z,26.4
2018-09-08T09:19:52.796Z,26.8
2018-09-08T09:20:37.904Z,26.67
2018-09-08T09:21:37.939Z,26.69
2018-09-08T09:22:37.712Z,26.5
2018-09-08T09:23:38.002Z,26.47
2018-09-08T09:24:39.977Z,26.32
2018-09-08T09:26:38.095Z,26.1
2018-09-08T09:27:38.388Z,25.7
2018-09-08T09:28:38.415Z,25.85
2018-09-08T09:29:38.190Z,25.87
2018-09-08T09:30:38.481Z,25.88
2018-09-08T09:31:53.176Z,25.67
2018-09-08T09:32:38.543Z,25.92
2018-09-08T09:33:38.574Z,26.36
2018-09-08T09:34:38.609Z,26.43
2018-09-08T09:35:53.296Z,26.45
2018-09-08T09:36:38.666Z,26.35
2018-09-08T09:37:38.697Z,26.2
2018-09-08T09:38:38.727Z,26.01
2018-09-08T09:39:38.503Z,25.7
2018-09-08T09:40:53.457Z,25.7
2018-09-08T09:41:38.825Z,25.73
2018-09-08T09:42:38.852Z,26.13
2018-09-08T09:43:38.632Z,26.21
2018-09-08T09:44:38.915Z,26.09
2018-09-08T09:45:38.708Z,25.87
2018-09-08T09:46:38.976Z,26.25
2018-09-08T09:47:39.007Z,26.3
2018-09-08T09:49:38.812Z,26.45
2018-09-08T09:50:53.758Z,26.5
2018-09-08T09:51:38.871Z,26.54
2018-09-08T09:52:39.161Z,26.17
2018-09-08T09:53:39.193Z,26.5
2018-09-08T09:54:39.217Z,26.91
2018-09-08T09:55:39.254Z,27.14
2018-09-08T09:56:39.020Z,26.91
2018-09-08T09:57:39.051Z,26.94
2018-09-08T09:58:39.082Z,26.97
2018-09-08T09:59:39.370Z,26.84
2018-09-08T10:00:39.404Z,26.5
2018-09-08T10:01:39.433Z,26.45
2018-09-08T10:02:39.562Z,26.76
2018-09-08T10:03:39.240Z,26.88
2018-09-08T10:04:39.520Z,26.94
2018-09-08T10:05:39.291Z,26.7
2018-09-08T10:06:40.029Z,26.51
2018-09-08T10:07:39.615Z,26.77
2018-09-08T10:08:39.643Z,26.84
2018-09-08T10:09:39.418Z,26.5
2018-09-08T10:10:39.710Z,26.51
2018-09-08T10:11:39.521Z,26.44
2018-09-08T10:12:54.425Z,26.26
2018-09-08T10:13:39.796Z,26.18
2018-09-08T10:14:39.565Z,26.02
2018-09-08T10:18:39.946Z,25.15
2018-09-08T10:19:39.971Z,24.77
2018-09-08T10:20:39.999Z,24.61
2018-09-08T10:21:54.694Z,24.64
2018-09-08T10:22:40.072Z,24.62
2018-09-08T10:23:40.200Z,24.25
2018-09-08T10:24:40.120Z,24.18
2018-09-08T10:25:39.892Z,24.28
2018-09-08T10:27:40.211Z,24.12
2018-09-08T10:28:54.905Z,24.28
2018-09-08T10:29:40.714Z,24.28
2018-09-08T10:30:40.589Z,24.32
2018-09-08T10:31:40.326Z,24.6
2018-09-08T10:33:40.383Z,24.47
2018-09-08T10:35:40.444Z,24.65
2018-09-08T10:36:40.474Z,24.61
2018-09-08T10:37:40.598Z,24.8
2018-09-08T10:38:40.271Z,24.69
2018-09-08T10:39:40.559Z,24.77
2018-09-08T10:40:40.588Z,24.6
2018-09-08T10:41:40.636Z,24.45
2018-09-08T10:42:40.405Z,24.34
2018-09-08T10:43:40.435Z,24.28
2018-09-08T10:44:55.375Z,24.22
2018-09-08T10:45:40.754Z,24.45
2018-09-08T10:46:40.781Z,24.37
2018-09-08T10:47:40.807Z,24.57
2018-09-08T10:48:40.581Z,24.62
2018-09-08T10:49:40.862Z,24.58
2018-09-08T10:50:40.633Z,24.76
2018-09-08T10:51:40.919Z,24.71
2018-09-08T10:52:40.687Z,24.67
2018-09-08T10:53:40.978Z,24.98
2018-09-08T10:55:40.769Z,24.22
2018-09-08T10:56:41.059Z,24.24
2018-09-08T10:58:41.114Z,23.87
2018-09-08T10:59:41.146Z,23.97
2018-09-08T11:00:55.557Z,24.06
2018-09-08T11:01:41.906Z,24.08
2018-09-08T11:02:42.596Z,24.09
2018-09-08T11:04:41.017Z,24.4
2018-09-08T11:05:41.042Z,24.58
2018-09-08T11:06:41.431Z,24.57
2018-09-08T11:07:41.356Z,24.39
2018-09-08T11:08:41.384Z,24.37
2018-09-08T11:10:41.438Z,24.39
2018-09-08T11:11:41.466Z,24.5
2018-09-08T11:12:41.497Z,24.4
2018-09-08T11:13:41.519Z,24.45
2018-09-08T11:14:56.199Z,24.4
2018-09-08T11:15:56.316Z,24.16
2018-09-08T11:16:41.601Z,24.35
2018-09-08T11:17:41.628Z,24.39
2018-09-08T11:18:41.705Z,24.28
2018-09-08T11:19:56.072Z,24.39
2018-09-08T11:20:41.713Z,24.42
2018-09-08T11:21:41.476Z,24.73
2018-09-08T11:22:41.499Z,24.77
2018-09-08T11:23:41.791Z,24.58
2018-09-08T11:24:41.606Z,24.42
2018-09-08T11:25:41.581Z,24.42
2018-09-08T11:26:41.868Z,24.52
2018-09-08T11:27:41.639Z,24.39
2018-09-08T11:28:41.661Z,24.4
2018-09-08T11:29:41.693Z,24.55
2018-09-08T11:30:42.307Z,24.53
2018-09-08T11:31:42.015Z,24.58
2018-09-08T11:33:56.448Z,24.73
2018-09-08T11:34:41.823Z,24.91
2018-09-08T11:35:56.499Z,24.65
2018-09-08T11:37:42.164Z,24.24
2018-09-08T11:38:56.854Z,24.02
2018-09-08T11:39:42.220Z,23.98
2018-09-08T11:40:41.981Z,24
2018-09-08T11:41:42.268Z,23.98
2018-09-08T11:42:42.139Z,24.16
2018-09-08T11:43:42.325Z,24.3
2018-09-08T11:44:42.446Z,24.12
2018-09-08T11:45:42.375Z,24.03
2018-09-08T11:46:57.051Z,23.65
2018-09-08T11:47:57.084Z,23.6
2018-09-08T11:49:42.413Z,23.9
2018-09-08T11:50:42.509Z,24.03
2018-09-08T11:51:42.276Z,24.05
2018-09-08T11:52:42.565Z,23.9
2018-09-08T11:53:57.244Z,23.83
2018-09-08T11:54:42.611Z,23.87
2018-09-08T11:55:42.956Z,23.76
2018-09-08T11:56:42.665Z,23.8
2018-09-08T11:57:42.697Z,23.9
2018-09-08T11:58:42.714Z,23.94
2018-09-08T12:00:57.423Z,24.15
2018-09-08T12:01:42.772Z,24.18
2018-09-08T12:02:42.539Z,24.06
2018-09-08T12:03:57.492Z,24.18
2018-09-08T12:04:42.851Z,24.2
2018-09-08T12:05:42.879Z,24.09
2018-09-08T12:06:42.643Z,24.03
2018-09-08T12:07:42.927Z,23.83
2018-09-08T12:08:42.955Z,23.85
2018-09-08T12:09:42.980Z,23.7
2018-09-08T12:10:43.206Z,23.55
2018-09-08T12:11:43.034Z,23.32
2018-09-08T12:12:57.721Z,23.31
2018-09-08T12:13:42.829Z,23.27
2018-09-08T12:14:43.112Z,23.4
2018-09-08T12:15:42.878Z,23.43
2018-09-08T12:16:42.903Z,23.38
2018-09-08T12:17:42.935Z,23.12
2018-09-08T12:18:42.955Z,23.22
2018-09-08T12:19:57.901Z,22.98
2018-09-08T12:20:43.271Z,23.02
2018-09-08T12:21:43.295Z,23.23
2018-09-08T12:22:42.803Z,23.43
2018-09-08T12:23:43.344Z,23.6
2018-09-08T12:24:43.381Z,23.55
2018-09-08T12:25:43.140Z,23.83
2018-09-08T12:26:43.423Z,23.98
2018-09-08T12:27:58.112Z,23.78
2018-09-08T12:28:43.473Z,23.8
2018-09-08T12:29:43.506Z,23.78
2018-09-08T12:30:43.521Z,23.8
2018-09-08T12:31:43.299Z,23.7
2018-09-08T12:32:43.322Z,23.57
2018-09-08T12:33:43.608Z,23.53
2018-09-08T12:34:43.634Z,23.43
2018-09-08T12:35:58.317Z,23.51
2018-09-08T12:36:43.686Z,23.4
2018-09-08T12:37:43.243Z,23.46
2018-09-08T12:38:43.902Z,23.47
2018-09-08T12:39:43.769Z,23.38
2018-09-08T12:40:43.786Z,23.53
2018-09-08T12:41:43.813Z,23.66
2018-09-08T12:42:43.841Z,23.6
2018-09-08T12:43:43.353Z,23.78
2018-09-08T12:44:58.558Z,23.69
2018-09-08T12:45:43.982Z,23.66
2018-09-08T12:46:43.945Z,23.85
2018-09-08T12:47:43.967Z,23.73
2018-09-08T12:49:44.019Z,23.9
2018-09-08T12:50:58.710Z,23.88
2018-09-08T12:51:44.073Z,23.83
2018-09-08T12:52:44.100Z,23.84
2018-09-08T12:53:44.130Z,23.93
2018-09-08T12:55:44.176Z,23.66
2018-09-08T12:56:43.946Z,23.47
2018-09-08T12:57:44.233Z,23.46
2018-09-08T12:58:44.257Z,23.38
2018-09-08T12:59:58.942Z,23.33
2018-09-08T13:00:44.510Z,23.47
2018-09-08T13:01:44.331Z,23.57
2018-09-08T13:02:44.102Z,23.68
2018-09-08T13:03:44.383Z,23.7
2018-09-08T13:04:44.406Z,23.57
2018-09-08T13:05:44.449Z,23.6
2018-09-08T13:07:44.667Z,23.28
2018-09-08T13:09:44.279Z,23.19
2018-09-08T13:10:44.566Z,23.02
2018-09-08T13:11:44.586Z,23.07
2018-09-08T13:12:44.623Z,23
2018-09-08T13:13:44.640Z,23.02
2018-09-08T13:14:44.661Z,23.17
2018-09-08T13:15:44.435Z,23.47
2018-09-08T13:16:44.459Z,23.4
2018-09-08T13:17:44.748Z,23.35
2018-09-08T13:18:44.772Z,23.46
2018-09-08T13:19:44.794Z,23.68
2018-09-08T13:20:44.821Z,23.75
2018-09-08T13:22:59.275Z,23.68
2018-09-08T13:24:44.925Z,23.94
2018-09-08T13:25:44.958Z,23.78
2018-09-08T13:26:59.641Z,23.8
2018-09-08T13:28:45.026Z,23.87
2018-09-08T13:29:45.050Z,23.78
2018-09-08T13:30:59.739Z,23.78
2018-09-08T13:31:45.101Z,23.79
2018-09-08T13:32:45.141Z,23.73
2018-09-08T13:33:44.913Z,23.72
2018-09-08T13:34:44.927Z,23.68
2018-09-08T13:35:45.217Z,23.88
2018-09-08T13:36:45.231Z,23.98
2018-09-08T13:37:45.258Z,23.84
2018-09-08T13:38:59.945Z,23.66
2018-09-08T13:39:45.810Z,23.68
2018-09-08T13:40:45.080Z,24.02
2018-09-08T13:41:45.360Z,24.15
2018-09-08T13:42:45.388Z,24.45
2018-09-08T13:44:00.078Z,24.57
2018-09-08T13:44:45.438Z,24.45
2018-09-08T13:45:45.460Z,24.4
2018-09-08T13:47:00.205Z,24.12
2018-09-08T13:47:45.516Z,24
2018-09-08T13:48:45.541Z,23.87
2018-09-08T13:49:45.309Z,23.87
2018-09-08T13:50:45.589Z,23.73
2018-09-08T13:51:45.623Z,23.79
2018-09-08T13:52:45.733Z,23.66
2018-09-08T13:53:45.414Z,23.55
2018-09-08T13:55:00.097Z,23.51
2018-09-08T13:56:45.750Z,23.63
2018-09-08T13:57:45.776Z,23.57
2018-09-08T13:59:45.825Z,23.68
2018-09-08T14:00:45.850Z,23.76
2018-09-08T14:01:45.881Z,23.85
2018-09-08T14:03:00.563Z,23.91
2018-09-08T14:03:45.930Z,23.88
2018-09-08T14:04:45.701Z,23.9